Central Nebraska Regional Airport Grand Island US
ICAO: KGRI
IATA: GRI
Category: Medium
Scheduled Services: Yes

Elevation: 1847 ft
TransAlt. 18000 ft.

Airport Communications:
ATIS:127.4
CLNC DEL:121.9
MINNEAPOLIS CNTR:119.4
CTAF:118.2
GND:121.9
ARNG OPS:38
COLUMBUS RDO:122.45
GRAND ISLAND TWR:118.2
UNICOM:122.95

KGRI Zoom In..

If Map Doesn't Load, Click Here

Runways:

(A) RW 13 length 6608 ft width 100 ft
---- / hdg 128

(B) RW 17 length 7002 ft width 150 ft
---- / hdg 173

(C) RW 31 length 6608 ft width 100 ft
---- / hdg 308

(D) RW 35 length 7002 ft width 150 ft
ILS 111.90 / hdg 353

Location; KGRI
Day. 23 / Time. 20.53 Zulu
* Altimeter: 29.90
* Temperature: 28° c. 82.4°f.
* Wind from: 170° Speed 13 kn with Gusts up to 23 kn.
Dewpoint: 11° c.
Visibility: 10 Statute Miles.
Clouds: Clear (automated report).

KGRI 232053Z 17013G23KT 10SM CLR 28/11 A2990 RMK AO2 PK WND 17026/2018 SLP121 T02830106 56024 $


Wind From 170°
Speed 13 kn.

 
 
jpsmedia.com for Web Design worldairports.se 2018   terms of use